sensor_id;sensor_type;location;lat;lon;timestamp;pressure;altitude;pressure_sealevel;temperature;humidity
28131;BME280;15418;42.634;23.374;2022-08-18T00:01:20;94187.69;;;21.37;100.00
28131;BME280;15418;42.634;23.374;2022-08-18T00:03:48;94193.41;;;21.44;100.00
28131;BME280;15418;42.634;23.374;2022-08-18T00:06:17;94183.97;;;21.17;100.00
28131;BME280;15418;42.634;23.374;2022-08-18T00:08:42;94194.06;;;21.25;100.00
28131;BME280;15418;42.634;23.374;2022-08-18T00:11:08;94193.66;;;21.39;100.00
28131;BME280;15418;42.634;23.374;2022-08-18T00:13:33;94177.47;;;21.37;100.00
28131;BME280;15418;42.634;23.374;2022-08-18T00:15:59;94171.41;;;21.32;100.00
28131;BME280;15418;42.634;23.374;2022-08-18T00:18:24;94175.50;;;21.38;100.00
28131;BME280;15418;42.634;23.374;2022-08-18T00:20:50;94174.63;;;21.34;100.00
28131;BME280;15418;42.634;23.374;2022-08-18T00:23:16;94169.69;;;21.27;100.00
28131;BME280;15418;42.634;23.374;2022-08-18T00:25:43;94192.31;;;21.33;100.00
28131;BME280;15418;42.634;23.374;2022-08-18T00:28:10;94182.41;;;21.03;100.00
28131;BME280;15418;42.634;23.374;2022-08-18T00:30:36;94183.81;;;20.97;100.00
28131;BME280;15418;42.634;23.374;2022-08-18T00:33:01;94186.34;;;20.90;100.00
28131;BME280;15418;42.634;23.374;2022-08-18T00:35:35;94192.91;;;20.85;100.00
28131;BME280;15418;42.634;23.374;2022-08-18T00:38:04;94168.16;;;20.73;100.00
28131;BME280;15418;42.634;23.374;2022-08-18T00:40:42;94175.16;;;20.58;100.00
28131;BME280;15418;42.634;23.374;2022-08-18T00:43:13;94181.69;;;20.53;100.00
28131;BME280;15418;42.634;23.374;2022-08-18T00:45:42;94199.38;;;20.52;100.00
28131;BME280;15418;42.634;23.374;2022-08-18T00:48:09;94149.06;;;20.15;100.00
28131;BME280;15418;42.634;23.374;2022-08-18T00:50:44;94199.38;;;20.40;100.00
28131;BME280;15418;42.634;23.374;2022-08-18T00:53:27;94205.09;;;20.35;100.00
28131;BME280;15418;42.634;23.374;2022-08-18T00:55:58;94171.19;;;20.06;100.00
28131;BME280;15418;42.634;23.374;2022-08-18T00:58:38;94216.56;;;20.24;100.00
28131;BME280;15418;42.634;23.374;2022-08-18T01:01:07;94162.44;;;19.91;100.00
28131;BME280;15418;42.634;23.374;2022-08-18T01:03:34;94204.06;;;20.27;100.00
28131;BME280;15418;42.634;23.374;2022-08-18T01:06:12;94207.41;;;20.33;100.00
28131;BME280;15418;42.634;23.374;2022-08-18T01:08:40;94196.06;;;20.22;100.00
28131;BME280;15418;42.634;23.374;2022-08-18T01:11:09;94193.78;;;20.24;100.00
28131;BME280;15418;42.634;23.374;2022-08-18T01:13:35;94197.78;;;20.27;100.00
28131;BME280;15418;42.634;23.374;2022-08-18T01:16:03;94183.31;;;20.17;100.00
28131;BME280;15418;42.634;23.374;2022-08-18T01:18:48;94186.53;;;20.19;100.00
28131;BME280;15418;42.634;23.374;2022-08-18T01:21:33;94221.84;;;20.17;100.00
28131;BME280;15418;42.634;23.374;2022-08-18T01:24:17;94184.53;;;19.83;100.00
28131;BME280;15418;42.634;23.374;2022-08-18T01:26:43;94212.69;;;19.67;100.00
28131;BME280;15418;42.634;23.374;2022-08-18T01:29:17;94198.56;;;19.56;100.00
28131;BME280;15418;42.634;23.374;2022-08-18T01:31:47;94218.75;;;19.73;100.00
28131;BME280;15418;42.634;23.374;2022-08-18T01:34:15;94219.44;;;19.70;100.00
28131;BME280;15418;42.634;23.374;2022-08-18T01:36:41;94167.03;;;19.41;100.00
28131;BME280;15418;42.634;23.374;2022-08-18T01:39:11;94199.13;;;19.62;100.00
28131;BME280;15418;42.634;23.374;2022-08-18T01:41:38;94192.97;;;19.65;100.00
28131;BME280;15418;42.634;23.374;2022-08-18T01:44:04;94209.63;;;19.81;100.00
28131;BME280;15418;42.634;23.374;2022-08-18T01:46:32;94208.16;;;19.84;100.00
28131;BME280;15418;42.634;23.374;2022-08-18T01:48:59;94209.78;;;19.85;100.00
28131;BME280;15418;42.634;23.374;2022-08-18T01:51:26;94199.91;;;19.84;100.00
28131;BME280;15418;42.634;23.374;2022-08-18T01:53:53;94189.72;;;19.97;100.00
28131;BME280;15418;42.634;23.374;2022-08-18T01:56:19;94172.72;;;19.70;100.00
28131;BME280;15418;42.634;23.374;2022-08-18T01:58:44;94184.50;;;19.70;100.00
28131;BME280;15418;42.634;23.374;2022-08-18T02:01:12;94163.06;;;19.51;100.00
28131;BME280;15418;42.634;23.374;2022-08-18T02:03:41;94194.59;;;19.66;100.00
28131;BME280;15418;42.634;23.374;2022-08-18T02:06:12;94185.97;;;19.55;100.00
28131;BME280;15418;42.634;23.374;2022-08-18T02:08:40;94200.84;;;19.54;100.00
28131;BME280;15418;42.634;23.374;2022-08-18T02:11:06;94188.69;;;19.43;100.00
28131;BME280;15418;42.634;23.374;2022-08-18T02:13:32;94202.88;;;19.45;100.00
28131;BME280;15418;42.634;23.374;2022-08-18T02:15:58;94192.19;;;19.31;100.00
28131;BME280;15418;42.634;23.374;2022-08-18T02:18:30;94222.44;;;19.43;100.00
28131;BME280;15418;42.634;23.374;2022-08-18T02:20:57;94211.72;;;19.51;100.00
28131;BME280;15418;42.634;23.374;2022-08-18T02:23:24;94200.34;;;19.40;100.00
28131;BME280;15418;42.634;23.374;2022-08-18T02:25:50;94197.94;;;19.38;100.00
28131;BME280;15418;42.634;23.374;2022-08-18T02:28:16;94212.16;;;19.40;100.00
28131;BME280;15418;42.634;23.374;2022-08-18T02:30:41;94204.00;;;19.32;100.00
28131;BME280;15418;42.634;23.374;2022-08-18T02:33:09;94218.50;;;19.32;100.00
28131;BME280;15418;42.634;23.374;2022-08-18T02:35:36;94190.53;;;19.18;100.00
28131;BME280;15418;42.634;23.374;2022-08-18T02:38:04;94208.91;;;19.38;100.00
28131;BME280;15418;42.634;23.374;2022-08-18T02:40:30;94198.84;;;19.42;100.00
28131;BME280;15418;42.634;23.374;2022-08-18T02:43:05;94203.78;;;19.37;100.00
28131;BME280;15418;42.634;23.374;2022-08-18T02:45:30;94179.09;;;19.16;100.00
28131;BME280;15418;42.634;23.374;2022-08-18T02:47:56;94178.06;;;19.20;100.00
28131;BME280;15418;42.634;23.374;2022-08-18T02:50:22;94207.31;;;19.37;100.00
28131;BME280;15418;42.634;23.374;2022-08-18T02:52:49;94209.34;;;19.28;100.00
28131;BME280;15418;42.634;23.374;2022-08-18T02:55:15;94162.75;;;18.98;100.00
28131;BME280;15418;42.634;23.374;2022-08-18T02:57:45;94211.22;;;19.15;100.00
28131;BME280;15418;42.634;23.374;2022-08-18T03:00:16;94215.78;;;19.11;100.00
28131;BME280;15418;42.634;23.374;2022-08-18T03:02:49;94209.25;;;19.03;100.00
28131;BME280;15418;42.634;23.374;2022-08-18T03:05:16;94212.31;;;19.02;100.00
28131;BME280;15418;42.634;23.374;2022-08-18T03:07:42;94197.03;;;18.92;100.00
28131;BME280;15418;42.634;23.374;2022-08-18T03:10:08;94203.63;;;19.00;100.00
28131;BME280;15418;42.634;23.374;2022-08-18T03:12:34;94212.78;;;19.04;100.00
28131;BME280;15418;42.634;23.374;2022-08-18T03:15:00;94184.03;;;18.80;100.00
28131;BME280;15418;42.634;23.374;2022-08-18T03:17:26;94202.22;;;18.85;100.00
28131;BME280;15418;42.634;23.374;2022-08-18T03:19:52;94202.34;;;18.88;100.00
28131;BME280;15418;42.634;23.374;2022-08-18T03:22:17;94201.88;;;18.95;100.00
28131;BME280;15418;42.634;23.374;2022-08-18T03:24:43;94210.50;;;19.06;100.00
28131;BME280;15418;42.634;23.374;2022-08-18T03:27:08;94196.63;;;18.81;100.00
28131;BME280;15418;42.634;23.374;2022-08-18T03:29:34;94231.88;;;19.00;100.00
28131;BME280;15418;42.634;23.374;2022-08-18T03:32:01;94229.00;;;18.96;100.00
28131;BME280;15418;42.634;23.374;2022-08-18T03:34:27;94226.94;;;18.85;100.00
28131;BME280;15418;42.634;23.374;2022-08-18T03:36:53;94207.19;;;18.70;100.00
28131;BME280;15418;42.634;23.374;2022-08-18T03:39:19;94235.47;;;18.92;100.00
28131;BME280;15418;42.634;23.374;2022-08-18T03:41:49;94234.34;;;18.93;100.00
28131;BME280;15418;42.634;23.374;2022-08-18T03:44:15;94225.66;;;18.91;100.00
28131;BME280;15418;42.634;23.374;2022-08-18T03:46:42;94232.25;;;18.90;100.00
28131;BME280;15418;42.634;23.374;2022-08-18T03:49:08;94169.84;;;18.57;100.00
28131;BME280;15418;42.634;23.374;2022-08-18T03:51:34;94220.75;;;18.96;100.00
28131;BME280;15418;42.634;23.374;2022-08-18T03:54:02;94235.47;;;18.92;100.00
28131;BME280;15418;42.634;23.374;2022-08-18T03:56:34;94235.97;;;18.94;100.00
28131;BME280;15418;42.634;23.374;2022-08-18T03:59:02;94227.56;;;19.11;100.00
28131;BME280;15418;42.634;23.374;2022-08-18T04:01:32;94233.53;;;19.13;100.00
28131;BME280;15418;42.634;23.374;2022-08-18T04:04:03;94217.53;;;19.16;100.00
28131;BME280;15418;42.634;23.374;2022-08-18T04:06:32;94226.50;;;19.25;100.00
28131;BME280;15418;42.634;23.374;2022-08-18T04:09:00;94231.81;;;19.42;100.00
28131;BME280;15418;42.634;23.374;2022-08-18T04:11:26;94237.22;;;19.18;100.00
28131;BME280;15418;42.634;23.374;2022-08-18T04:13:55;94233.88;;;19.12;100.00
28131;BME280;15418;42.634;23.374;2022-08-18T04:16:28;94243.13;;;19.28;100.00
28131;BME280;15418;42.634;23.374;2022-08-18T04:18:57;94223.66;;;19.34;100.00
28131;BME280;15418;42.634;23.374;2022-08-18T04:21:27;94223.78;;;19.37;100.00
28131;BME280;15418;42.634;23.374;2022-08-18T04:23:55;94218.88;;;19.09;100.00
28131;BME280;15418;42.634;23.374;2022-08-18T04:26:32;94207.47;;;19.20;100.00
28131;BME280;15418;42.634;23.374;2022-08-18T04:28:59;94250.34;;;19.33;100.00
28131;BME280;15418;42.634;23.374;2022-08-18T04:31:28;94247.41;;;19.17;100.00
28131;BME280;15418;42.634;23.374;2022-08-18T04:33:58;94236.50;;;19.08;100.00
28131;BME280;15418;42.634;23.374;2022-08-18T04:36:25;94246.50;;;19.13;100.00
28131;BME280;15418;42.634;23.374;2022-08-18T04:38:52;94266.50;;;19.35;100.00
28131;BME280;15418;42.634;23.374;2022-08-18T04:41:18;94233.19;;;19.36;100.00
28131;BME280;15418;42.634;23.374;2022-08-18T04:43:43;94260.31;;;19.59;100.00
28131;BME280;15418;42.634;23.374;2022-08-18T04:46:09;94239.44;;;19.58;100.00
28131;BME280;15418;42.634;23.374;2022-08-18T04:48:39;94256.69;;;19.67;100.00
28131;BME280;15418;42.634;23.374;2022-08-18T04:51:17;94258.50;;;19.75;100.00
28131;BME280;15418;42.634;23.374;2022-08-18T04:53:43;94260.44;;;19.96;100.00
28131;BME280;15418;42.634;23.374;2022-08-18T04:56:17;94242.81;;;20.09;100.00
28131;BME280;15418;42.634;23.374;2022-08-18T04:58:51;94263.72;;;20.35;100.00
28131;BME280;15418;42.634;23.374;2022-08-18T05:01:22;94273.09;;;20.47;100.00
28131;BME280;15418;42.634;23.374;2022-08-18T05:03:49;94258.31;;;20.51;100.00
28131;BME280;15418;42.634;23.374;2022-08-18T05:06:16;94265.75;;;20.63;100.00
28131;BME280;15418;42.634;23.374;2022-08-18T05:08:41;94266.69;;;20.67;100.00
28131;BME280;15418;42.634;23.374;2022-08-18T05:11:07;94238.03;;;20.56;100.00
28131;BME280;15418;42.634;23.374;2022-08-18T05:13:33;94244.47;;;20.72;100.00
28131;BME280;15418;42.634;23.374;2022-08-18T05:15:59;94260.84;;;20.81;100.00
28131;BME280;15418;42.634;23.374;2022-08-18T05:18:29;94240.97;;;20.63;100.00
28131;BME280;15418;42.634;23.374;2022-08-18T05:20:56;94278.94;;;21.07;100.00
28131;BME280;15418;42.634;23.374;2022-08-18T05:23:22;94283.06;;;21.13;100.00
28131;BME280;15418;42.634;23.374;2022-08-18T05:25:56;94262.38;;;21.19;100.00
28131;BME280;15418;42.634;23.374;2022-08-18T05:28:22;94246.22;;;21.18;100.00
28131;BME280;15418;42.634;23.374;2022-08-18T05:30:47;94279.56;;;21.41;100.00
28131;BME280;15418;42.634;23.374;2022-08-18T05:33:13;94247.16;;;21.38;100.00
28131;BME280;15418;42.634;23.374;2022-08-18T05:35:48;94261.63;;;21.47;100.00
28131;BME280;15418;42.634;23.374;2022-08-18T05:38:38;94274.94;;;21.58;100.00
28131;BME280;15418;42.634;23.374;2022-08-18T05:41:07;94280.28;;;21.66;100.00
28131;BME280;15418;42.634;23.374;2022-08-18T05:43:37;94232.91;;;21.48;100.00
28131;BME280;15418;42.634;23.374;2022-08-18T05:46:05;94254.53;;;21.75;100.00
28131;BME280;15418;42.634;23.374;2022-08-18T05:48:34;94238.88;;;21.79;100.00
28131;BME280;15418;42.634;23.374;2022-08-18T05:51:11;94279.16;;;22.12;100.00
28131;BME280;15418;42.634;23.374;2022-08-18T05:53:39;94282.09;;;22.19;100.00
28131;BME280;15418;42.634;23.374;2022-08-18T05:56:27;94268.94;;;22.12;100.00
28131;BME280;15418;42.634;23.374;2022-08-18T05:59:14;94251.16;;;21.81;100.00
28131;BME280;15418;42.634;23.374;2022-08-18T06:01:45;94268.63;;;21.85;100.00
28131;BME280;15418;42.634;23.374;2022-08-18T06:04:52;94283.03;;;21.95;100.00
28131;BME280;15418;42.634;23.374;2022-08-18T06:10:06;94282.56;;;22.37;100.00
28131;BME280;15418;42.634;23.374;2022-08-18T06:15:14;94269.03;;;22.64;100.00
28131;BME280;15418;42.634;23.374;2022-08-18T06:25:34;94269.34;;;22.94;100.00
28131;BME280;15418;42.634;23.374;2022-08-18T06:28:08;94269.91;;;23.55;100.00
28131;BME280;15418;42.634;23.374;2022-08-18T06:33:29;94255.06;;;26.66;89.62
28131;BME280;15418;42.634;23.374;2022-08-18T06:36:12;94263.88;;;28.16;78.27
28131;BME280;15418;42.634;23.374;2022-08-18T06:39:10;94268.75;;;29.05;71.12
28131;BME280;15418;42.634;23.374;2022-08-18T06:41:41;94262.00;;;30.31;64.01
28131;BME280;15418;42.634;23.374;2022-08-18T06:44:56;94260.66;;;31.10;59.20
28131;BME280;15418;42.634;23.374;2022-08-18T06:47:57;94256.91;;;31.70;55.29
28131;BME280;15418;42.634;23.374;2022-08-18T06:52:36;94250.59;;;32.82;49.14
28131;BME280;15418;42.634;23.374;2022-08-18T06:55:06;94253.91;;;33.01;48.51
28131;BME280;15418;42.634;23.374;2022-08-18T06:57:52;94247.53;;;33.68;46.11
28131;BME280;15418;42.634;23.374;2022-08-18T07:03:17;94242.75;;;32.70;51.46
28131;BME280;15418;42.634;23.374;2022-08-18T07:08:48;94237.34;;;34.88;42.84
28131;BME280;15418;42.634;23.374;2022-08-18T07:11:27;94234.22;;;34.82;41.62
28131;BME280;15418;42.634;23.374;2022-08-18T07:14:13;94223.59;;;34.90;41.51
28131;BME280;15418;42.634;23.374;2022-08-18T07:16:39;94214.41;;;35.52;40.34
28131;BME280;15418;42.634;23.374;2022-08-18T07:19:08;94222.44;;;35.20;39.53
28131;BME280;15418;42.634;23.374;2022-08-18T07:21:36;94223.13;;;35.24;40.93
28131;BME280;15418;42.634;23.374;2022-08-18T07:24:42;94210.41;;;35.95;39.75
28131;BME280;15418;42.634;23.374;2022-08-18T07:27:13;94215.09;;;35.56;40.58
28131;BME280;15418;42.634;23.374;2022-08-18T07:29:58;94210.50;;;35.92;40.07
28131;BME280;15418;42.634;23.374;2022-08-18T07:32:39;94212.84;;;36.61;37.21
28131;BME280;15418;42.634;23.374;2022-08-18T07:35:08;94221.25;;;36.22;36.94
28131;BME280;15418;42.634;23.374;2022-08-18T07:37:50;94211.72;;;36.72;36.12
28131;BME280;15418;42.634;23.374;2022-08-18T07:42:52;94208.41;;;35.50;36.54
28131;BME280;15418;42.634;23.374;2022-08-18T07:48:15;94224.91;;;34.32;39.11
28131;BME280;15418;42.634;23.374;2022-08-18T07:50:59;94216.56;;;34.98;37.29
28131;BME280;15418;42.634;23.374;2022-08-18T07:53:46;94220.84;;;35.19;37.57
28131;BME280;15418;42.634;23.374;2022-08-18T07:56:27;94224.22;;;35.31;37.91
28131;BME280;15418;42.634;23.374;2022-08-18T08:05:14;94230.84;;;35.07;36.17
28131;BME280;15418;42.634;23.374;2022-08-18T08:08:01;94191.16;;;34.32;37.14
28131;BME280;15418;42.634;23.374;2022-08-18T08:10:35;94200.34;;;34.53;38.43
28131;BME280;15418;42.634;23.374;2022-08-18T08:18:35;94214.88;;;34.68;37.38
28131;BME280;15418;42.634;23.374;2022-08-18T08:21:08;94213.75;;;34.82;36.83
28131;BME280;15418;42.634;23.374;2022-08-18T08:26:52;94211.22;;;34.34;40.10
28131;BME280;15418;42.634;23.374;2022-08-18T08:29:43;94219.03;;;34.63;38.59
28131;BME280;15418;42.634;23.374;2022-08-18T08:32:15;94210.34;;;35.53;37.43
28131;BME280;15418;42.634;23.374;2022-08-18T08:34:51;94213.78;;;35.44;36.97
28131;BME280;15418;42.634;23.374;2022-08-18T08:37:35;94213.56;;;35.68;35.42
28131;BME280;15418;42.634;23.374;2022-08-18T08:40:15;94209.94;;;35.67;35.75
28131;BME280;15418;42.634;23.374;2022-08-18T08:45:34;94210.47;;;36.73;32.90
28131;BME280;15418;42.634;23.374;2022-08-18T08:48:23;94221.66;;;36.37;32.60
28131;BME280;15418;42.634;23.374;2022-08-18T08:53:26;94222.47;;;33.33;36.67
28131;BME280;15418;42.634;23.374;2022-08-18T08:56:00;94219.44;;;34.45;35.83
28131;BME280;15418;42.634;23.374;2022-08-18T08:58:37;94217.47;;;33.65;38.50
28131;BME280;15418;42.634;23.374;2022-08-18T09:01:05;94214.47;;;34.69;36.45
28131;BME280;15418;42.634;23.374;2022-08-18T09:20:17;94193.78;;;35.09;35.01
28131;BME280;15418;42.634;23.374;2022-08-18T09:22:52;94185.84;;;34.38;35.03
28131;BME280;15418;42.634;23.374;2022-08-18T09:45:39;94165.75;;;35.35;35.29
28131;BME280;15418;42.634;23.374;2022-08-18T09:52:56;94177.84;;;33.79;35.27
28131;BME280;15418;42.634;23.374;2022-08-18T09:58:19;94173.59;;;33.31;36.85
28131;BME280;15418;42.634;23.374;2022-08-18T10:06:46;94165.78;;;32.20;39.45
28131;BME280;15418;42.634;23.374;2022-08-18T10:17:36;94151.22;;;32.56;38.41
28131;BME280;15418;42.634;23.374;2022-08-18T10:20:58;94153.19;;;32.04;39.28
28131;BME280;15418;42.634;23.374;2022-08-18T10:29:04;94131.13;;;31.79;39.50
28131;BME280;15418;42.634;23.374;2022-08-18T10:39:43;94144.53;;;31.64;40.53
28131;BME280;15418;42.634;23.374;2022-08-18T10:45:05;94118.13;;;30.92;42.21
28131;BME280;15418;42.634;23.374;2022-08-18T10:47:32;94108.31;;;30.73;41.57
28131;BME280;15418;42.634;23.374;2022-08-18T10:50:06;94121.00;;;30.85;43.01
28131;BME280;15418;42.634;23.374;2022-08-18T10:55:44;94132.91;;;31.62;41.02
28131;BME280;15418;42.634;23.374;2022-08-18T10:58:31;94128.69;;;31.50;39.85
28131;BME280;15418;42.634;23.374;2022-08-18T11:04:07;94131.81;;;31.21;41.80
28131;BME280;15418;42.634;23.374;2022-08-18T11:06:47;94090.69;;;30.80;42.66
28131;BME280;15418;42.634;23.374;2022-08-18T11:09:29;94094.28;;;31.50;41.44
28131;BME280;15418;42.634;23.374;2022-08-18T11:12:01;94109.25;;;31.98;40.51
28131;BME280;15418;42.634;23.374;2022-08-18T11:17:43;94117.59;;;31.74;39.71
28131;BME280;15418;42.634;23.374;2022-08-18T11:20:15;94103.53;;;31.78;38.40
28131;BME280;15418;42.634;23.374;2022-08-18T11:23:02;94111.56;;;32.03;37.89
28131;BME280;15418;42.634;23.374;2022-08-18T11:25:32;94101.78;;;31.87;40.54
28131;BME280;15418;42.634;23.374;2022-08-18T11:27:59;94108.91;;;32.19;37.37
28131;BME280;15418;42.634;23.374;2022-08-18T11:30:31;94106.22;;;32.39;36.13
28131;BME280;15418;42.634;23.374;2022-08-18T11:32:59;94094.16;;;32.43;35.96
28131;BME280;15418;42.634;23.374;2022-08-18T11:35:29;94102.44;;;32.50;37.83
28131;BME280;15418;42.634;23.374;2022-08-18T11:38:01;94102.13;;;32.44;35.74
28131;BME280;15418;42.634;23.374;2022-08-18T11:40:41;94099.59;;;32.53;35.16
28131;BME280;15418;42.634;23.374;2022-08-18T11:58:44;94081.09;;;32.32;36.56
28131;BME280;15418;42.634;23.374;2022-08-18T12:06:57;94074.34;;;32.02;36.74
28131;BME280;15418;42.634;23.374;2022-08-18T12:12:23;94072.47;;;31.96;36.97
28131;BME280;15418;42.634;23.374;2022-08-18T12:17:41;94056.38;;;32.00;37.44
28131;BME280;15418;42.634;23.374;2022-08-18T12:20:08;94052.91;;;31.92;36.53
28131;BME280;15418;42.634;23.374;2022-08-18T12:22:36;94024.13;;;31.88;37.45
28131;BME280;15418;42.634;23.374;2022-08-18T12:25:06;94042.28;;;32.31;38.11
28131;BME280;15418;42.634;23.374;2022-08-18T12:27:31;94060.31;;;32.53;36.96
28131;BME280;15418;42.634;23.374;2022-08-18T12:29:58;94059.63;;;32.69;36.23
28131;BME280;15418;42.634;23.374;2022-08-18T12:32:26;94059.13;;;32.75;36.45
28131;BME280;15418;42.634;23.374;2022-08-18T12:34:52;94052.25;;;32.79;36.69
28131;BME280;15418;42.634;23.374;2022-08-18T12:37:23;94046.63;;;32.79;36.45
28131;BME280;15418;42.634;23.374;2022-08-18T12:39:59;94023.06;;;32.73;35.13
28131;BME280;15418;42.634;23.374;2022-08-18T12:42:29;94032.19;;;33.01;34.71
28131;BME280;15418;42.634;23.374;2022-08-18T12:44:54;94045.06;;;33.18;34.57
28131;BME280;15418;42.634;23.374;2022-08-18T12:47:22;94044.72;;;33.16;34.03
28131;BME280;15418;42.634;23.374;2022-08-18T12:49:51;94016.69;;;32.72;34.49
28131;BME280;15418;42.634;23.374;2022-08-18T12:52:18;94021.44;;;32.32;35.33
28131;BME280;15418;42.634;23.374;2022-08-18T12:54:44;94051.22;;;32.69;35.80
28131;BME280;15418;42.634;23.374;2022-08-18T12:57:22;94039.38;;;33.02;34.52
28131;BME280;15418;42.634;23.374;2022-08-18T12:59:47;94025.53;;;32.71;34.31
28131;BME280;15418;42.634;23.374;2022-08-18T13:02:13;94057.06;;;32.99;34.72
28131;BME280;15418;42.634;23.374;2022-08-18T13:04:39;94056.22;;;33.02;34.66
28131;BME280;15418;42.634;23.374;2022-08-18T13:07:05;94052.47;;;32.88;34.97
28131;BME280;15418;42.634;23.374;2022-08-18T13:09:35;94045.56;;;33.13;34.62
28131;BME280;15418;42.634;23.374;2022-08-18T13:12:01;94022.88;;;31.92;35.49
28131;BME280;15418;42.634;23.374;2022-08-18T13:14:29;94038.97;;;32.60;34.90
28131;BME280;15418;42.634;23.374;2022-08-18T13:16:54;94017.88;;;32.51;34.36
28131;BME280;15418;42.634;23.374;2022-08-18T13:19:20;94040.91;;;32.63;34.68
28131;BME280;15418;42.634;23.374;2022-08-18T13:21:46;94017.88;;;32.51;34.59
28131;BME280;15418;42.634;23.374;2022-08-18T13:24:12;94007.50;;;32.48;34.88
28131;BME280;15418;42.634;23.374;2022-08-18T13:26:41;94002.28;;;32.50;35.06
28131;BME280;15418;42.634;23.374;2022-08-18T13:29:07;94023.13;;;32.49;34.80
28131;BME280;15418;42.634;23.374;2022-08-18T13:31:34;94029.47;;;32.53;35.52
28131;BME280;15418;42.634;23.374;2022-08-18T13:33:59;94022.69;;;32.51;36.28
28131;BME280;15418;42.634;23.374;2022-08-18T13:36:27;94020.25;;;32.73;34.56
28131;BME280;15418;42.634;23.374;2022-08-18T13:39:09;93981.63;;;32.61;34.30
28131;BME280;15418;42.634;23.374;2022-08-18T13:41:35;94023.56;;;32.48;35.02
28131;BME280;15418;42.634;23.374;2022-08-18T13:44:03;94015.34;;;32.57;34.68
28131;BME280;15418;42.634;23.374;2022-08-18T13:46:28;93994.63;;;32.31;35.35
28131;BME280;15418;42.634;23.374;2022-08-18T13:48:54;94014.81;;;32.66;35.17
28131;BME280;15418;42.634;23.374;2022-08-18T13:51:22;94016.25;;;32.74;34.42
28131;BME280;15418;42.634;23.374;2022-08-18T13:53:51;93996.75;;;32.67;35.23
28131;BME280;15418;42.634;23.374;2022-08-18T13:56:16;94015.78;;;32.99;35.44
28131;BME280;15418;42.634;23.374;2022-08-18T13:58:44;94016.94;;;33.02;34.70
28131;BME280;15418;42.634;23.374;2022-08-18T14:01:10;94001.34;;;33.17;33.90
28131;BME280;15418;42.634;23.374;2022-08-18T14:03:36;94003.59;;;32.66;35.00
28131;BME280;15418;42.634;23.374;2022-08-18T14:06:04;94012.34;;;32.92;34.48
28131;BME280;15418;42.634;23.374;2022-08-18T14:08:30;93997.00;;;32.96;35.14
28131;BME280;15418;42.634;23.374;2022-08-18T14:11:05;93977.09;;;32.91;34.50
28131;BME280;15418;42.634;23.374;2022-08-18T14:13:30;93976.84;;;33.01;34.15
28131;BME280;15418;42.634;23.374;2022-08-18T14:15:57;94007.38;;;32.99;34.44
28131;BME280;15418;42.634;23.374;2022-08-18T14:18:24;94001.97;;;32.88;34.51
28131;BME280;15418;42.634;23.374;2022-08-18T14:20:50;94011.41;;;32.98;34.11
28131;BME280;15418;42.634;23.374;2022-08-18T14:23:34;93986.78;;;32.86;35.06
28131;BME280;15418;42.634;23.374;2022-08-18T14:26:32;94009.13;;;32.69;33.70
28131;BME280;15418;42.634;23.374;2022-08-18T14:29:14;93994.56;;;32.78;34.72
28131;BME280;15418;42.634;23.374;2022-08-18T14:31:40;93978.19;;;32.73;34.86
28131;BME280;15418;42.634;23.374;2022-08-18T14:34:06;93926.19;;;32.48;33.91
28131;BME280;15418;42.634;23.374;2022-08-18T14:36:32;93995.91;;;32.70;35.16
28131;BME280;15418;42.634;23.374;2022-08-18T14:38:59;93923.38;;;32.28;34.76
28131;BME280;15418;42.634;23.374;2022-08-18T14:41:25;93969.97;;;32.42;35.32
28131;BME280;15418;42.634;23.374;2022-08-18T14:43:51;93926.84;;;32.12;35.40
28131;BME280;15418;42.634;23.374;2022-08-18T14:46:17;93965.13;;;31.99;35.39
28131;BME280;15418;42.634;23.374;2022-08-18T14:48:44;93934.44;;;31.68;34.86
28131;BME280;15418;42.634;23.374;2022-08-18T14:51:11;93977.16;;;31.72;36.56
28131;BME280;15418;42.634;23.374;2022-08-18T14:53:36;93956.50;;;31.89;35.29
28131;BME280;15418;42.634;23.374;2022-08-18T14:56:03;94000.78;;;32.22;35.41
28131;BME280;15418;42.634;23.374;2022-08-18T14:58:31;93927.06;;;31.78;35.53
28131;BME280;15418;42.634;23.374;2022-08-18T15:01:00;93996.44;;;32.17;35.27
28131;BME280;15418;42.634;23.374;2022-08-18T15:03:30;93944.41;;;31.92;35.59
28131;BME280;15418;42.634;23.374;2022-08-18T15:06:00;93991.56;;;31.98;35.97
28131;BME280;15418;42.634;23.374;2022-08-18T15:08:26;93974.25;;;31.79;36.22
28131;BME280;15418;42.634;23.374;2022-08-18T15:10:52;93971.88;;;31.78;36.63
28131;BME280;15418;42.634;23.374;2022-08-18T15:13:17;93952.44;;;31.90;37.41
28131;BME280;15418;42.634;23.374;2022-08-18T15:15:43;93969.69;;;32.13;36.38
28131;BME280;15418;42.634;23.374;2022-08-18T15:18:09;93988.00;;;32.41;35.77
28131;BME280;15418;42.634;23.374;2022-08-18T15:20:35;94013.25;;;32.41;37.11
28131;BME280;15418;42.634;23.374;2022-08-18T15:23:20;94005.78;;;32.34;36.80
28131;BME280;15418;42.634;23.374;2022-08-18T15:26:04;94008.19;;;32.08;37.18
28131;BME280;15418;42.634;23.374;2022-08-18T15:28:29;93936.88;;;31.62;37.32
28131;BME280;15418;42.634;23.374;2022-08-18T15:30:56;93981.00;;;31.82;36.67
28131;BME280;15418;42.634;23.374;2022-08-18T15:33:21;94011.53;;;32.00;37.08
28131;BME280;15418;42.634;23.374;2022-08-18T15:35:48;93984.06;;;31.67;37.17
28131;BME280;15418;42.634;23.374;2022-08-18T15:38:19;93954.97;;;31.30;37.47
28131;BME280;15418;42.634;23.374;2022-08-18T15:40:57;94013.88;;;31.50;38.56
28131;BME280;15418;42.634;23.374;2022-08-18T15:43:24;94007.56;;;31.42;38.95
28131;BME280;15418;42.634;23.374;2022-08-18T15:45:50;94005.31;;;31.34;38.91